CMP127 MPTO-SLVR
Flight info
| Callsign | CMP127 |
|---|---|
| Flight time | 4h 19m |
| Altitude | 35000 |
| Route | DANDA1A DANDA DCT IRATA UN420 NIRBU/N0456F370 UN420 PAKES |
| Aircraft | B738/M-SDE2E3FGHIRWXY/LB1 |
Departure
| Time | 2026-04-26 22:06 |
|---|---|
| Airport | Tocumen International Airport (MPTO) |
Arrival
| Time | 2026-04-27 02:25 |
|---|---|
| Airport | Viru Viru International Airport (SLVR) |
| Time | Latitude | Longitude | Altitude | Speed | Heading |
|---|---|---|---|---|---|
| 2026-04-26 21:33 | 9.06441 | -79.38665 | 29 ft | 0 kts | 342° |
| 2026-04-26 21:34 | 9.06432 | -79.38662 | 29 ft | 0 kts | 342° |
| 2026-04-26 21:56 | 9.06413 | -79.38654 | 29 ft | 4 kts | 322° |
| 2026-04-26 21:57 | 9.06397 | -79.38634 | 29 ft | 4 kts | 288° |
| 2026-04-26 21:57 | 9.06395 | -79.38609 | 29 ft | 4 kts | 250° |
| 2026-04-26 21:57 | 9.06405 | -79.38594 | 29 ft | 0 kts | 207° |
| 2026-04-26 21:59 | 9.06404 | -79.38595 | 29 ft | 1 kts | 207° |
| 2026-04-26 21:59 | 9.06392 | -79.38601 | 29 ft | 3 kts | 206° |
| 2026-04-26 22:00 | 9.06363 | -79.38615 | 29 ft | 6 kts | 204° |
| 2026-04-26 22:00 | 9.06317 | -79.38620 | 29 ft | 8 kts | 182° |
| 2026-04-26 22:00 | 9.06256 | -79.38623 | 29 ft | 10 kts | 183° |
| 2026-04-26 22:00 | 9.06184 | -79.38634 | 29 ft | 11 kts | 197° |
| 2026-04-26 22:01 | 9.06110 | -79.38671 | 29 ft | 13 kts | 208° |
| 2026-04-26 22:01 | 9.06029 | -79.38716 | 29 ft | 14 kts | 210° |
| 2026-04-26 22:01 | 9.05941 | -79.38766 | 29 ft | 15 kts | 209° |
| 2026-04-26 22:01 | 9.05849 | -79.38819 | 29 ft | 15 kts | 210° |
| 2026-04-26 22:02 | 9.05753 | -79.38875 | 29 ft | 17 kts | 210° |
| 2026-04-26 22:02 | 9.05685 | -79.38914 | 29 ft | 17 kts | 210° |
| 2026-04-26 22:02 | 9.05542 | -79.38999 | 29 ft | 18 kts | 210° |
| 2026-04-26 22:02 | 9.05436 | -79.39060 | 29 ft | 17 kts | 210° |
| 2026-04-26 22:03 | 9.05333 | -79.39118 | 29 ft | 17 kts | 209° |
| 2026-04-26 22:03 | 9.05234 | -79.39175 | 29 ft | 16 kts | 210° |
| 2026-04-26 22:03 | 9.05140 | -79.39229 | 29 ft | 15 kts | 209° |
| 2026-04-26 22:03 | 9.05047 | -79.39282 | 29 ft | 16 kts | 209° |
| 2026-04-26 22:04 | 9.04947 | -79.39339 | 29 ft | 17 kts | 210° |
| 2026-04-26 22:04 | 9.04846 | -79.39370 | 29 ft | 15 kts | 151° |
| 2026-04-26 22:04 | 9.04787 | -79.39291 | 30 ft | 12 kts | 123° |
| 2026-04-26 22:04 | 9.04785 | -79.39249 | 30 ft | 3 kts | 27° |
| 2026-04-26 22:05 | 9.04786 | -79.39249 | 30 ft | 0 kts | 27° |
| 2026-04-26 22:05 | 9.04795 | -79.39244 | 30 ft | 11 kts | 27° |
| 2026-04-26 22:05 | 9.05076 | -79.39083 | 30 ft | 82 kts | 29° |
| 2026-04-26 22:05 | 9.05771 | -79.38687 | 30 ft | 144 kts | 29° |
| 2026-04-26 22:06 | 9.06795 | -79.38105 | 138 ft | 186 kts | 28° |
| 2026-04-26 22:06 | 9.07971 | -79.37472 | 761 ft | 198 kts | 30° |
| 2026-04-26 22:06 | 9.08988 | -79.36625 | 1750 ft | 180 kts | 63° |
| 2026-04-26 22:06 | 9.09143 | -79.35390 | 2537 ft | 187 kts | 98° |
| 2026-04-26 22:07 | 9.08885 | -79.33992 | 2810 ft | 215 kts | 100° |
| 2026-04-26 22:07 | 9.08583 | -79.32446 | 3007 ft | 237 kts | 100° |
| 2026-04-26 22:07 | 9.08261 | -79.30768 | 3406 ft | 247 kts | 99° |
| 2026-04-26 22:07 | 9.08048 | -79.29633 | 3769 ft | 249 kts | 99° |
| 2026-04-26 22:08 | 9.07618 | -79.27261 | 4428 ft | 263 kts | 99° |
| 2026-04-26 22:08 | 9.07292 | -79.25423 | 5154 ft | 265 kts | 99° |
| 2026-04-26 22:08 | 9.06969 | -79.23586 | 5981 ft | 266 kts | 98° |
| 2026-04-26 22:08 | 9.06639 | -79.21731 | 6641 ft | 271 kts | 102° |
| 2026-04-26 22:09 | 9.05840 | -79.20011 | 6939 ft | 273 kts | 131° |
| 2026-04-26 22:09 | 9.04293 | -79.18874 | 7024 ft | 285 kts | 161° |
| 2026-04-26 22:09 | 9.02310 | -79.18698 | 7506 ft | 291 kts | 191° |
| 2026-04-26 22:09 | 9.00402 | -79.19351 | 8332 ft | 290 kts | 204° |
| 2026-04-26 22:10 | 8.98547 | -79.20221 | 9009 ft | 296 kts | 206° |
| 2026-04-26 22:10 | 8.96688 | -79.21132 | 9755 ft | 297 kts | 206° |
| 2026-04-26 22:10 | 8.94838 | -79.22032 | 10417 ft | 300 kts | 206° |
| 2026-04-26 22:10 | 8.92941 | -79.22941 | 11106 ft | 302 kts | 206° |
| 2026-04-26 22:11 | 8.91030 | -79.23846 | 11776 ft | 305 kts | 205° |
| 2026-04-26 22:11 | 8.89095 | -79.24754 | 12426 ft | 308 kts | 206° |
| 2026-04-26 22:11 | 8.87143 | -79.25666 | 13080 ft | 311 kts | 206° |
| 2026-04-26 22:11 | 8.85169 | -79.26587 | 13754 ft | 313 kts | 206° |
| 2026-04-26 22:12 | 8.83178 | -79.27514 | 14240 ft | 320 kts | 206° |
| 2026-04-26 22:12 | 8.81094 | -79.28485 | 14364 ft | 340 kts | 205° |
| 2026-04-26 22:12 | 8.78889 | -79.29512 | 14492 ft | 358 kts | 205° |
| 2026-04-26 22:12 | 8.76578 | -79.30588 | 14634 ft | 373 kts | 205° |
| 2026-04-26 22:13 | 8.74185 | -79.31701 | 14927 ft | 383 kts | 205° |
| 2026-04-26 22:13 | 8.71754 | -79.32832 | 15399 ft | 386 kts | 205° |
| 2026-04-26 22:13 | 8.69306 | -79.33970 | 15930 ft | 387 kts | 205° |
| 2026-04-26 22:13 | 8.66856 | -79.35110 | 16454 ft | 389 kts | 205° |
| 2026-04-26 22:14 | 8.64390 | -79.36257 | 16943 ft | 391 kts | 205° |
| 2026-04-26 22:14 | 8.61831 | -79.37243 | 17343 ft | 397 kts | 192° |
| 2026-04-26 22:14 | 8.59073 | -79.37338 | 17795 ft | 400 kts | 172° |
| 2026-04-26 22:14 | 8.56405 | -79.36533 | 18257 ft | 403 kts | 155° |
| 2026-04-26 22:15 | 8.53935 | -79.35267 | 18674 ft | 404 kts | 153° |
| 2026-04-26 22:15 | 8.51444 | -79.33930 | 19056 ft | 407 kts | 152° |
| 2026-04-26 22:15 | 8.48934 | -79.32568 | 19438 ft | 410 kts | 152° |
| 2026-04-26 22:15 | 8.46413 | -79.31206 | 19823 ft | 412 kts | 152° |
| 2026-04-26 22:16 | 8.43874 | -79.29845 | 20222 ft | 414 kts | 152° |
| 2026-04-26 22:16 | 8.41319 | -79.28486 | 20604 ft | 416 kts | 152° |
| 2026-04-26 22:16 | 8.38748 | -79.27126 | 20966 ft | 418 kts | 153° |
| 2026-04-26 22:16 | 8.37033 | -79.26221 | 21211 ft | 420 kts | 153° |
| 2026-04-26 22:17 | 8.34438 | -79.24856 | 21579 ft | 422 kts | 153° |
| 2026-04-26 22:17 | 8.31825 | -79.23482 | 21932 ft | 424 kts | 153° |
| 2026-04-26 22:17 | 8.29198 | -79.22102 | 22262 ft | 426 kts | 153° |
| 2026-04-26 22:17 | 8.25698 | -79.20264 | 22722 ft | 429 kts | 153° |
| 2026-04-26 22:18 | 8.23043 | -79.18869 | 23056 ft | 431 kts | 153° |
| 2026-04-26 22:18 | 8.21243 | -79.17924 | 23286 ft | 433 kts | 153° |
| 2026-04-26 22:18 | 8.18566 | -79.16518 | 23563 ft | 435 kts | 153° |
| 2026-04-26 22:18 | 8.15874 | -79.15104 | 23851 ft | 436 kts | 153° |
| 2026-04-26 22:19 | 8.13179 | -79.13689 | 24149 ft | 437 kts | 153° |
| 2026-04-26 22:19 | 8.10516 | -79.12291 | 24428 ft | 438 kts | 153° |
| 2026-04-26 22:19 | 8.07803 | -79.10867 | 24699 ft | 439 kts | 153° |
| 2026-04-26 22:19 | 8.05083 | -79.09440 | 24968 ft | 441 kts | 153° |
| 2026-04-26 22:20 | 8.02357 | -79.08009 | 25232 ft | 442 kts | 153° |
| 2026-04-26 22:20 | 7.99621 | -79.06574 | 25488 ft | 444 kts | 153° |
| 2026-04-26 22:20 | 7.96875 | -79.05133 | 25745 ft | 446 kts | 153° |
| 2026-04-26 22:20 | 7.94121 | -79.03688 | 25998 ft | 447 kts | 153° |
| 2026-04-26 22:21 | 7.91355 | -79.02238 | 26253 ft | 448 kts | 153° |
| 2026-04-26 22:21 | 7.88585 | -79.00785 | 26502 ft | 450 kts | 153° |
| 2026-04-26 22:21 | 7.85805 | -78.99327 | 26754 ft | 451 kts | 153° |
| 2026-04-26 22:21 | 7.83017 | -78.97866 | 26996 ft | 452 kts | 153° |
| 2026-04-26 22:22 | 7.80221 | -78.96401 | 27228 ft | 454 kts | 153° |
| 2026-04-26 22:22 | 7.77419 | -78.94932 | 27468 ft | 455 kts | 153° |
| 2026-04-26 22:22 | 7.74606 | -78.93458 | 27712 ft | 456 kts | 153° |
| 2026-04-26 22:22 | 7.71788 | -78.91981 | 27935 ft | 457 kts | 153° |
| 2026-04-26 22:23 | 7.68957 | -78.90499 | 28153 ft | 458 kts | 153° |
| 2026-04-26 22:23 | 7.66125 | -78.89015 | 28372 ft | 460 kts | 153° |
| 2026-04-26 22:23 | 7.63321 | -78.87547 | 28582 ft | 461 kts | 153° |
| 2026-04-26 22:23 | 7.60472 | -78.86055 | 28787 ft | 462 kts | 153° |
| 2026-04-26 22:24 | 7.57614 | -78.84558 | 29004 ft | 463 kts | 153° |
| 2026-04-26 22:24 | 7.54754 | -78.83061 | 29223 ft | 464 kts | 153° |
| 2026-04-26 22:24 | 7.51884 | -78.81558 | 29407 ft | 465 kts | 153° |
| 2026-04-26 22:24 | 7.49014 | -78.80051 | 29623 ft | 466 kts | 152° |
| 2026-04-26 22:25 | 7.46191 | -78.78448 | 29918 ft | 465 kts | 150° |
| 2026-04-26 22:25 | 7.43424 | -78.76781 | 30221 ft | 462 kts | 149° |
| 2026-04-26 22:25 | 7.40687 | -78.75093 | 30488 ft | 461 kts | 149° |
| 2026-04-26 22:25 | 7.37953 | -78.73399 | 30699 ft | 461 kts | 149° |
| 2026-04-26 22:26 | 7.35218 | -78.71713 | 30914 ft | 461 kts | 149° |
| 2026-04-26 22:26 | 7.32480 | -78.70035 | 31172 ft | 460 kts | 149° |
| 2026-04-26 22:26 | 7.29749 | -78.68371 | 31456 ft | 458 kts | 149° |
| 2026-04-26 22:26 | 7.27024 | -78.66717 | 31716 ft | 457 kts | 149° |
| 2026-04-26 22:27 | 7.24294 | -78.65063 | 31935 ft | 457 kts | 150° |
| 2026-04-26 22:27 | 7.21565 | -78.63411 | 32176 ft | 457 kts | 150° |
| 2026-04-26 22:27 | 7.18879 | -78.61785 | 32448 ft | 456 kts | 150° |
| 2026-04-26 22:27 | 7.16127 | -78.60119 | 32714 ft | 455 kts | 150° |
| 2026-04-26 22:28 | 7.13452 | -78.58499 | 32955 ft | 454 kts | 150° |
| 2026-04-26 22:28 | 7.10746 | -78.56861 | 33199 ft | 454 kts | 150° |
| 2026-04-26 22:28 | 7.08042 | -78.55224 | 33466 ft | 453 kts | 150° |
| 2026-04-26 22:28 | 7.05343 | -78.53590 | 33723 ft | 452 kts | 150° |
| 2026-04-26 22:29 | 7.02651 | -78.51961 | 33946 ft | 451 kts | 150° |
| 2026-04-26 22:29 | 6.99961 | -78.50333 | 34137 ft | 451 kts | 150° |
| 2026-04-26 22:29 | 6.97267 | -78.48703 | 34319 ft | 451 kts | 150° |
| 2026-04-26 22:29 | 6.94571 | -78.47072 | 34501 ft | 452 kts | 150° |
| 2026-04-26 22:30 | 6.91874 | -78.45440 | 34691 ft | 451 kts | 150° |
| 2026-04-26 22:30 | 6.89187 | -78.43815 | 34882 ft | 451 kts | 150° |
| 2026-04-26 22:30 | 6.86492 | -78.42185 | 35060 ft | 451 kts | 150° |
| 2026-04-26 22:30 | 6.83794 | -78.40553 | 35227 ft | 451 kts | 150° |
| 2026-04-26 22:31 | 6.81100 | -78.38924 | 35396 ft | 451 kts | 150° |
| 2026-04-26 22:31 | 6.78411 | -78.37298 | 35574 ft | 451 kts | 150° |
| 2026-04-26 22:31 | 6.75756 | -78.35692 | 35761 ft | 451 kts | 150° |
| 2026-04-26 22:31 | 6.73061 | -78.34064 | 35914 ft | 451 kts | 150° |
| 2026-04-26 22:32 | 6.70373 | -78.32439 | 36067 ft | 451 kts | 150° |
| 2026-04-26 22:32 | 6.67687 | -78.30812 | 36232 ft | 451 kts | 150° |
| 2026-04-26 22:32 | 6.64998 | -78.29183 | 36414 ft | 450 kts | 150° |
| 2026-04-26 22:32 | 6.62314 | -78.27555 | 36574 ft | 450 kts | 150° |
| 2026-04-26 22:33 | 6.59630 | -78.25928 | 36713 ft | 451 kts | 150° |
| 2026-04-26 22:33 | 6.54252 | -78.22668 | 36847 ft | 453 kts | 150° |
| 2026-04-26 22:34 | 6.48850 | -78.19394 | 36851 ft | 452 kts | 149° |
| 2026-04-26 22:34 | 6.43475 | -78.16138 | 36853 ft | 450 kts | 149° |
| 2026-04-26 22:35 | 6.38125 | -78.12897 | 36857 ft | 448 kts | 149° |
| 2026-04-26 22:35 | 6.32821 | -78.09685 | 36859 ft | 447 kts | 149° |
| 2026-04-26 22:36 | 6.27487 | -78.06456 | 36857 ft | 446 kts | 149° |
| 2026-04-26 22:36 | 6.22163 | -78.03234 | 36857 ft | 446 kts | 149° |
| 2026-04-26 22:37 | 6.16840 | -78.00014 | 36859 ft | 447 kts | 149° |
| 2026-04-26 22:37 | 6.11507 | -77.96787 | 36859 ft | 448 kts | 149° |
| 2026-04-26 22:38 | 6.06165 | -77.93557 | 36858 ft | 449 kts | 149° |
| 2026-04-26 22:38 | 6.00802 | -77.90314 | 36861 ft | 450 kts | 149° |
| 2026-04-26 22:39 | 5.95424 | -77.87063 | 36859 ft | 451 kts | 149° |
| 2026-04-26 22:39 | 5.90072 | -77.83828 | 36860 ft | 452 kts | 149° |
| 2026-04-26 22:40 | 5.84677 | -77.80569 | 36862 ft | 453 kts | 149° |
| 2026-04-26 22:40 | 5.79275 | -77.77305 | 36865 ft | 453 kts | 149° |
| 2026-04-26 22:41 | 5.73866 | -77.74038 | 36864 ft | 453 kts | 149° |
| 2026-04-26 22:41 | 5.68464 | -77.70777 | 36866 ft | 453 kts | 149° |
| 2026-04-26 22:42 | 5.63061 | -77.67515 | 36866 ft | 452 kts | 149° |
| 2026-04-26 22:42 | 5.57669 | -77.64260 | 36870 ft | 452 kts | 149° |
| 2026-04-26 22:43 | 5.52286 | -77.61012 | 36871 ft | 451 kts | 149° |
| 2026-04-26 22:43 | 5.46915 | -77.57772 | 36871 ft | 450 kts | 149° |
| 2026-04-26 22:44 | 5.41584 | -77.54556 | 36874 ft | 449 kts | 149° |
| 2026-04-26 22:44 | 5.36229 | -77.51327 | 36879 ft | 449 kts | 149° |
| 2026-04-26 22:45 | 5.30878 | -77.48100 | 36876 ft | 448 kts | 149° |
| 2026-04-26 22:45 | 5.25529 | -77.44877 | 36880 ft | 448 kts | 149° |
| 2026-04-26 22:46 | 5.20183 | -77.41655 | 36879 ft | 448 kts | 149° |
| 2026-04-26 22:46 | 5.14840 | -77.38435 | 36881 ft | 448 kts | 149° |
| 2026-04-26 22:47 | 5.09498 | -77.35217 | 36880 ft | 448 kts | 149° |
| 2026-04-26 22:47 | 5.04154 | -77.31998 | 36879 ft | 448 kts | 149° |
| 2026-04-26 22:48 | 4.98800 | -77.28774 | 36882 ft | 449 kts | 149° |
| 2026-04-26 22:48 | 4.93480 | -77.25571 | 36880 ft | 449 kts | 149° |
| 2026-04-26 22:49 | 4.88126 | -77.22348 | 36879 ft | 449 kts | 149° |
| 2026-04-26 22:49 | 4.82761 | -77.19119 | 36873 ft | 449 kts | 149° |
| 2026-04-26 22:50 | 4.77392 | -77.15888 | 36872 ft | 449 kts | 149° |
| 2026-04-26 22:50 | 4.72019 | -77.12656 | 36870 ft | 450 kts | 149° |
| 2026-04-26 22:51 | 4.66651 | -77.09427 | 36867 ft | 450 kts | 149° |
| 2026-04-26 22:51 | 4.61321 | -77.06221 | 36868 ft | 449 kts | 149° |
| 2026-04-26 22:52 | 4.55956 | -77.02995 | 36862 ft | 449 kts | 149° |
| 2026-04-26 22:52 | 4.50588 | -76.99768 | 36857 ft | 449 kts | 149° |
| 2026-04-26 22:53 | 4.45229 | -76.96546 | 36862 ft | 449 kts | 149° |
| 2026-04-26 22:53 | 4.39865 | -76.93323 | 36857 ft | 449 kts | 149° |
| 2026-04-26 22:54 | 4.34498 | -76.90098 | 36861 ft | 449 kts | 149° |
| 2026-04-26 22:54 | 4.29136 | -76.86876 | 36858 ft | 449 kts | 149° |
| 2026-04-26 22:55 | 4.23768 | -76.83652 | 36868 ft | 449 kts | 149° |
| 2026-04-26 22:55 | 4.18444 | -76.80455 | 36871 ft | 449 kts | 149° |
| 2026-04-26 22:56 | 4.13078 | -76.77232 | 36879 ft | 449 kts | 149° |
| 2026-04-26 22:56 | 4.07710 | -76.74009 | 36880 ft | 450 kts | 149° |
| 2026-04-26 22:57 | 4.02340 | -76.70786 | 36884 ft | 450 kts | 149° |
| 2026-04-26 22:57 | 3.96959 | -76.67556 | 36894 ft | 450 kts | 149° |
| 2026-04-26 22:58 | 3.91580 | -76.64328 | 36887 ft | 451 kts | 149° |
| 2026-04-26 22:58 | 3.86229 | -76.61118 | 36883 ft | 451 kts | 149° |
| 2026-04-26 22:59 | 3.80851 | -76.57890 | 36894 ft | 451 kts | 149° |
| 2026-04-26 22:59 | 3.75471 | -76.54663 | 36901 ft | 451 kts | 149° |
| 2026-04-26 23:00 | 3.70091 | -76.51437 | 36912 ft | 450 kts | 149° |
| 2026-04-26 23:00 | 3.64716 | -76.48214 | 36927 ft | 450 kts | 149° |
| 2026-04-26 23:01 | 3.59345 | -76.44993 | 36936 ft | 450 kts | 149° |
| 2026-04-26 23:01 | 3.53978 | -76.41776 | 36940 ft | 449 kts | 149° |
| 2026-04-26 23:02 | 3.48617 | -76.38562 | 36938 ft | 449 kts | 149° |
| 2026-04-26 23:02 | 3.43262 | -76.35352 | 36935 ft | 448 kts | 149° |
| 2026-04-26 23:03 | 3.37912 | -76.32146 | 36927 ft | 448 kts | 149° |
| 2026-04-26 23:03 | 3.33465 | -76.29482 | 36921 ft | 447 kts | 149° |
| 2026-04-26 23:04 | 3.28129 | -76.26284 | 36925 ft | 447 kts | 149° |
| 2026-04-26 23:04 | 3.21932 | -76.22572 | 36938 ft | 446 kts | 148° |
| 2026-04-26 23:05 | 3.17463 | -76.19895 | 36953 ft | 446 kts | 148° |
| 2026-04-26 23:05 | 3.12137 | -76.16706 | 36986 ft | 446 kts | 148° |
| 2026-04-26 23:06 | 3.06845 | -76.13537 | 36995 ft | 446 kts | 148° |
| 2026-04-26 23:06 | 3.01518 | -76.10347 | 37015 ft | 447 kts | 148° |
| 2026-04-26 23:07 | 2.96177 | -76.07150 | 37029 ft | 447 kts | 148° |
| 2026-04-26 23:07 | 2.90837 | -76.03953 | 37037 ft | 447 kts | 148° |
| 2026-04-26 23:08 | 2.85502 | -76.00759 | 37052 ft | 448 kts | 148° |
| 2026-04-26 23:08 | 2.80146 | -75.97553 | 37049 ft | 449 kts | 148° |
| 2026-04-26 23:09 | 2.74769 | -75.94336 | 37037 ft | 450 kts | 148° |
| 2026-04-26 23:09 | 2.69410 | -75.91129 | 37017 ft | 451 kts | 148° |
| 2026-04-26 23:10 | 2.64014 | -75.87901 | 37010 ft | 452 kts | 148° |
| 2026-04-26 23:10 | 2.58605 | -75.84664 | 36977 ft | 453 kts | 148° |
| 2026-04-26 23:11 | 2.53192 | -75.81427 | 36962 ft | 453 kts | 148° |
| 2026-04-26 23:11 | 2.47780 | -75.78190 | 36943 ft | 453 kts | 148° |
| 2026-04-26 23:12 | 2.42410 | -75.74978 | 36926 ft | 452 kts | 148° |
| 2026-04-26 23:12 | 2.37006 | -75.71747 | 36915 ft | 451 kts | 148° |
| 2026-04-26 23:13 | 2.31610 | -75.68520 | 36918 ft | 451 kts | 148° |
| 2026-04-26 23:13 | 2.26224 | -75.65300 | 36916 ft | 450 kts | 148° |
| 2026-04-26 23:14 | 2.20885 | -75.62107 | 36917 ft | 450 kts | 148° |
| 2026-04-26 23:14 | 2.15518 | -75.58899 | 36919 ft | 449 kts | 148° |
| 2026-04-26 23:15 | 2.10152 | -75.55692 | 36920 ft | 449 kts | 148° |
| 2026-04-26 23:15 | 2.04782 | -75.52481 | 36924 ft | 449 kts | 148° |
| 2026-04-26 23:16 | 1.99435 | -75.49286 | 36914 ft | 450 kts | 148° |
| 2026-04-26 23:16 | 1.94062 | -75.46075 | 36908 ft | 450 kts | 148° |
| 2026-04-26 23:17 | 1.88682 | -75.42859 | 36906 ft | 450 kts | 148° |
| 2026-04-26 23:17 | 1.83289 | -75.39637 | 36893 ft | 451 kts | 148° |
| 2026-04-26 23:18 | 1.77899 | -75.36416 | 36884 ft | 451 kts | 148° |
| 2026-04-26 23:18 | 1.72532 | -75.33208 | 36881 ft | 452 kts | 148° |
| 2026-04-26 23:19 | 1.67121 | -75.29976 | 36872 ft | 452 kts | 148° |
| 2026-04-26 23:19 | 1.61716 | -75.26744 | 36859 ft | 453 kts | 148° |
| 2026-04-26 23:20 | 1.56292 | -75.23500 | 36858 ft | 453 kts | 148° |
| 2026-04-26 23:20 | 1.50885 | -75.20265 | 36849 ft | 453 kts | 148° |
| 2026-04-26 23:21 | 1.45501 | -75.17044 | 36845 ft | 453 kts | 148° |
| 2026-04-26 23:21 | 1.40079 | -75.13800 | 36841 ft | 454 kts | 148° |
| 2026-04-26 23:22 | 1.34662 | -75.10560 | 36845 ft | 454 kts | 148° |
| 2026-04-26 23:22 | 1.29238 | -75.07316 | 36841 ft | 454 kts | 148° |
| 2026-04-26 23:23 | 1.23815 | -75.04072 | 36845 ft | 454 kts | 148° |
| 2026-04-26 23:23 | 1.18415 | -75.00842 | 36846 ft | 455 kts | 148° |
| 2026-04-26 23:24 | 1.12980 | -74.97591 | 36850 ft | 455 kts | 148° |
| 2026-04-26 23:24 | 1.07538 | -74.94337 | 36847 ft | 455 kts | 148° |
| 2026-04-26 23:25 | 1.02094 | -74.91081 | 36855 ft | 455 kts | 148° |
| 2026-04-26 23:25 | 0.96653 | -74.87827 | 36850 ft | 456 kts | 148° |
| 2026-04-26 23:26 | 0.91203 | -74.84568 | 36853 ft | 456 kts | 148° |
| 2026-04-26 23:26 | 0.85792 | -74.81331 | 36857 ft | 456 kts | 148° |
| 2026-04-26 23:27 | 0.80342 | -74.78075 | 36855 ft | 457 kts | 148° |
| 2026-04-26 23:27 | 0.74884 | -74.74822 | 36856 ft | 457 kts | 148° |
| 2026-04-26 23:28 | 0.69424 | -74.71567 | 36857 ft | 457 kts | 148° |
| 2026-04-26 23:28 | 0.63962 | -74.68310 | 36864 ft | 457 kts | 148° |
| 2026-04-26 23:29 | 0.58499 | -74.65052 | 36867 ft | 457 kts | 148° |
| 2026-04-26 23:29 | 0.53027 | -74.61788 | 36864 ft | 457 kts | 148° |
| 2026-04-26 23:30 | 0.47561 | -74.58528 | 36869 ft | 457 kts | 148° |
| 2026-04-26 23:30 | 0.42098 | -74.55270 | 36864 ft | 457 kts | 148° |
| 2026-04-26 23:31 | 0.36631 | -74.52009 | 36874 ft | 457 kts | 148° |
| 2026-04-26 23:31 | 0.31167 | -74.48751 | 36871 ft | 457 kts | 148° |
| 2026-04-26 23:32 | 0.25740 | -74.45514 | 36872 ft | 457 kts | 148° |
| 2026-04-26 23:32 | 0.20239 | -74.42234 | 36876 ft | 457 kts | 148° |
| 2026-04-26 23:33 | 0.14809 | -74.38995 | 36881 ft | 457 kts | 148° |
| 2026-04-26 23:33 | 0.09339 | -74.35733 | 36880 ft | 457 kts | 149° |
| 2026-04-26 23:34 | 0.03872 | -74.32473 | 36881 ft | 457 kts | 149° |
| 2026-04-26 23:34 | -0.01584 | -74.29218 | 36859 ft | 457 kts | 150° |
| 2026-04-26 23:35 | -0.07040 | -74.25965 | 36881 ft | 457 kts | 150° |
| 2026-04-26 23:35 | -0.12467 | -74.22730 | 36884 ft | 457 kts | 150° |
| 2026-04-26 23:36 | -0.17932 | -74.19470 | 36882 ft | 458 kts | 150° |
| 2026-04-26 23:36 | -0.23407 | -74.16205 | 36887 ft | 458 kts | 150° |
| 2026-04-26 23:37 | -0.28893 | -74.12933 | 36886 ft | 459 kts | 150° |
| 2026-04-26 23:37 | -0.34376 | -74.09663 | 36889 ft | 459 kts | 150° |
| 2026-04-26 23:38 | -0.39863 | -74.06391 | 36885 ft | 459 kts | 149° |
| 2026-04-26 23:38 | -0.45315 | -74.03139 | 36886 ft | 459 kts | 149° |
| 2026-04-26 23:39 | -0.50834 | -73.99848 | 36883 ft | 459 kts | 150° |
| 2026-04-26 23:39 | -0.56278 | -73.96601 | 36888 ft | 458 kts | 150° |
| 2026-04-26 23:40 | -0.61762 | -73.93329 | 36891 ft | 458 kts | 150° |
| 2026-04-26 23:40 | -0.67239 | -73.90063 | 36889 ft | 458 kts | 150° |
| 2026-04-26 23:41 | -0.72715 | -73.86796 | 36891 ft | 458 kts | 150° |
| 2026-04-26 23:41 | -0.78185 | -73.83534 | 36888 ft | 458 kts | 150° |
| 2026-04-26 23:42 | -0.83661 | -73.80267 | 36892 ft | 458 kts | 150° |
| 2026-04-26 23:42 | -0.91890 | -73.75358 | 36892 ft | 460 kts | 150° |
| 2026-04-26 23:43 | -0.97390 | -73.72076 | 36893 ft | 460 kts | 150° |
| 2026-04-26 23:43 | -1.02897 | -73.68790 | 36888 ft | 461 kts | 150° |
| 2026-04-26 23:44 | -1.08377 | -73.65520 | 36895 ft | 462 kts | 150° |
| 2026-04-26 23:44 | -1.13979 | -73.62362 | 36884 ft | 462 kts | 158° |
| 2026-04-26 23:45 | -1.19041 | -73.60567 | 36897 ft | 461 kts | 163° |
| 2026-04-26 23:45 | -1.26157 | -73.58277 | 36892 ft | 462 kts | 163° |
| 2026-04-26 23:46 | -1.32239 | -73.56291 | 36891 ft | 462 kts | 163° |
| 2026-04-26 23:46 | -1.38365 | -73.54253 | 36891 ft | 463 kts | 163° |
| 2026-04-26 23:47 | -1.44473 | -73.52207 | 36887 ft | 463 kts | 163° |
| 2026-04-26 23:47 | -1.50584 | -73.50159 | 36890 ft | 463 kts | 163° |
| 2026-04-26 23:48 | -1.56645 | -73.48129 | 36890 ft | 462 kts | 163° |
| 2026-04-26 23:48 | -1.62748 | -73.46086 | 36893 ft | 461 kts | 163° |
| 2026-04-26 23:49 | -1.68834 | -73.44048 | 36892 ft | 461 kts | 163° |
| 2026-04-26 23:49 | -1.74916 | -73.42012 | 36889 ft | 460 kts | 163° |
| 2026-04-26 23:50 | -1.80949 | -73.39992 | 36886 ft | 459 kts | 162° |
| 2026-04-26 23:50 | -1.87005 | -73.37964 | 36885 ft | 459 kts | 162° |
| 2026-04-26 23:51 | -1.92045 | -73.36276 | 36889 ft | 458 kts | 162° |
| 2026-04-26 23:51 | -1.98115 | -73.34243 | 36888 ft | 458 kts | 162° |
| 2026-04-26 23:52 | -2.04128 | -73.32229 | 36886 ft | 458 kts | 162° |
| 2026-04-26 23:52 | -2.10184 | -73.30200 | 36885 ft | 458 kts | 162° |
| 2026-04-26 23:53 | -2.16244 | -73.28170 | 36883 ft | 459 kts | 162° |
| 2026-04-26 23:53 | -2.22268 | -73.26152 | 36885 ft | 459 kts | 162° |
| 2026-04-26 23:54 | -2.28331 | -73.24120 | 36889 ft | 460 kts | 161° |
| 2026-04-26 23:54 | -2.34407 | -73.22084 | 36886 ft | 460 kts | 161° |
| 2026-04-26 23:55 | -2.40487 | -73.20047 | 36883 ft | 460 kts | 161° |
| 2026-04-26 23:55 | -2.46533 | -73.18020 | 36888 ft | 461 kts | 161° |
| 2026-04-26 23:56 | -2.52624 | -73.15979 | 36884 ft | 461 kts | 161° |
| 2026-04-26 23:56 | -2.58707 | -73.13940 | 36885 ft | 461 kts | 161° |
| 2026-04-26 23:57 | -2.64792 | -73.11899 | 36884 ft | 461 kts | 161° |
| 2026-04-26 23:57 | -2.70881 | -73.09858 | 36884 ft | 461 kts | 161° |
| 2026-04-26 23:58 | -2.76963 | -73.07818 | 36883 ft | 461 kts | 161° |
| 2026-04-26 23:58 | -2.83009 | -73.05790 | 36879 ft | 461 kts | 161° |
| 2026-04-26 23:59 | -2.89097 | -73.03747 | 36882 ft | 461 kts | 161° |
| 2026-04-26 23:59 | -2.95087 | -73.01470 | 36873 ft | 461 kts | 152° |
| 2026-04-27 00:00 | -3.00400 | -72.97913 | 36883 ft | 460 kts | 143° |
| 2026-04-27 00:00 | -3.05562 | -72.94131 | 36878 ft | 459 kts | 143° |
| 2026-04-27 00:01 | -3.10730 | -72.90371 | 36882 ft | 459 kts | 144° |
| 2026-04-27 00:01 | -3.15889 | -72.86661 | 36879 ft | 458 kts | 144° |
| 2026-04-27 00:02 | -3.21074 | -72.82947 | 36880 ft | 458 kts | 144° |
| 2026-04-27 00:02 | -3.26259 | -72.79236 | 36878 ft | 457 kts | 144° |
| 2026-04-27 00:03 | -3.31429 | -72.75533 | 36872 ft | 456 kts | 143° |
| 2026-04-27 00:03 | -3.36560 | -72.71857 | 36880 ft | 456 kts | 143° |
| 2026-04-27 00:04 | -3.41717 | -72.68162 | 36889 ft | 455 kts | 143° |
| 2026-04-27 00:04 | -3.46873 | -72.64467 | 36886 ft | 455 kts | 143° |
| 2026-04-27 00:05 | -3.52028 | -72.60772 | 36880 ft | 455 kts | 143° |
| 2026-04-27 00:05 | -3.57180 | -72.57078 | 36884 ft | 456 kts | 143° |
| 2026-04-27 00:06 | -3.62338 | -72.53380 | 36883 ft | 456 kts | 143° |
| 2026-04-27 00:06 | -3.67499 | -72.49679 | 36881 ft | 456 kts | 143° |
| 2026-04-27 00:07 | -3.72669 | -72.45971 | 36885 ft | 457 kts | 143° |
| 2026-04-27 00:07 | -3.77806 | -72.42287 | 36889 ft | 457 kts | 143° |
| 2026-04-27 00:08 | -3.82981 | -72.38574 | 36892 ft | 457 kts | 143° |
| 2026-04-27 00:08 | -3.88153 | -72.34863 | 36887 ft | 457 kts | 143° |
| 2026-04-27 00:09 | -3.93328 | -72.31149 | 36884 ft | 457 kts | 143° |
| 2026-04-27 00:09 | -3.98492 | -72.27443 | 36888 ft | 456 kts | 143° |
| 2026-04-27 00:10 | -4.03652 | -72.23738 | 36892 ft | 456 kts | 143° |
| 2026-04-27 00:10 | -4.08807 | -72.20037 | 36891 ft | 455 kts | 143° |
| 2026-04-27 00:11 | -4.13960 | -72.16337 | 36888 ft | 455 kts | 143° |
| 2026-04-27 00:11 | -4.19078 | -72.12661 | 36894 ft | 455 kts | 143° |
| 2026-04-27 00:12 | -4.24223 | -72.08965 | 36891 ft | 455 kts | 143° |
| 2026-04-27 00:12 | -4.29377 | -72.05262 | 36892 ft | 455 kts | 143° |
| 2026-04-27 00:13 | -4.34518 | -72.01568 | 36892 ft | 455 kts | 143° |
| 2026-04-27 00:13 | -4.39661 | -71.97871 | 36895 ft | 455 kts | 143° |
| 2026-04-27 00:14 | -4.44777 | -71.94193 | 36894 ft | 456 kts | 143° |
| 2026-04-27 00:14 | -4.49934 | -71.90484 | 36894 ft | 456 kts | 143° |
| 2026-04-27 00:15 | -4.55089 | -71.86774 | 36897 ft | 457 kts | 143° |
| 2026-04-27 00:15 | -4.60250 | -71.83053 | 36898 ft | 457 kts | 143° |
| 2026-04-27 00:16 | -4.65422 | -71.79321 | 36899 ft | 458 kts | 143° |
| 2026-04-27 00:16 | -4.70597 | -71.75586 | 36899 ft | 458 kts | 143° |
| 2026-04-27 00:17 | -4.75737 | -71.71876 | 36899 ft | 458 kts | 143° |
| 2026-04-27 00:17 | -4.80916 | -71.68138 | 36900 ft | 459 kts | 143° |
| 2026-04-27 00:18 | -4.86097 | -71.64397 | 36901 ft | 459 kts | 143° |
| 2026-04-27 00:18 | -4.91279 | -71.60655 | 36901 ft | 459 kts | 143° |
| 2026-04-27 00:19 | -4.96460 | -71.56914 | 36901 ft | 459 kts | 143° |
| 2026-04-27 00:19 | -5.01637 | -71.53174 | 36899 ft | 458 kts | 143° |
| 2026-04-27 00:20 | -5.06812 | -71.49434 | 36901 ft | 458 kts | 143° |
| 2026-04-27 00:20 | -5.11984 | -71.45696 | 36903 ft | 458 kts | 143° |
| 2026-04-27 00:21 | -5.17157 | -71.41957 | 36901 ft | 458 kts | 143° |
| 2026-04-27 00:21 | -5.22294 | -71.38243 | 36902 ft | 458 kts | 143° |
| 2026-04-27 00:22 | -5.27472 | -71.34498 | 36901 ft | 458 kts | 143° |
| 2026-04-27 00:22 | -5.32644 | -71.30757 | 36902 ft | 458 kts | 143° |
| 2026-04-27 00:23 | -5.37820 | -71.27012 | 36905 ft | 458 kts | 143° |
| 2026-04-27 00:23 | -5.42998 | -71.23264 | 36904 ft | 459 kts | 143° |
| 2026-04-27 00:24 | -5.48177 | -71.19515 | 36904 ft | 459 kts | 143° |
| 2026-04-27 00:24 | -5.53368 | -71.15756 | 36906 ft | 460 kts | 143° |
| 2026-04-27 00:25 | -5.58576 | -71.11985 | 36908 ft | 461 kts | 143° |
| 2026-04-27 00:25 | -5.63751 | -71.08233 | 36912 ft | 462 kts | 143° |
| 2026-04-27 00:26 | -5.68976 | -71.04443 | 36905 ft | 464 kts | 143° |
| 2026-04-27 00:26 | -5.74209 | -71.00647 | 36905 ft | 465 kts | 143° |
| 2026-04-27 00:27 | -5.79456 | -70.96838 | 36906 ft | 465 kts | 144° |
| 2026-04-27 00:27 | -5.84712 | -70.93023 | 36907 ft | 466 kts | 144° |
| 2026-04-27 00:28 | -5.89969 | -70.89206 | 36908 ft | 466 kts | 144° |
| 2026-04-27 00:28 | -5.95241 | -70.85376 | 36906 ft | 467 kts | 144° |
| 2026-04-27 00:29 | -6.00503 | -70.81553 | 36909 ft | 467 kts | 144° |
| 2026-04-27 00:29 | -6.05734 | -70.77756 | 36909 ft | 467 kts | 144° |
| 2026-04-27 00:30 | -6.11003 | -70.73934 | 36905 ft | 467 kts | 144° |
| 2026-04-27 00:30 | -6.16274 | -70.70109 | 36907 ft | 467 kts | 144° |
| 2026-04-27 00:31 | -6.21541 | -70.66286 | 36907 ft | 466 kts | 144° |
| 2026-04-27 00:31 | -6.26797 | -70.62468 | 36908 ft | 466 kts | 143° |
| 2026-04-27 00:32 | -6.32054 | -70.58648 | 36910 ft | 466 kts | 143° |
| 2026-04-27 00:32 | -6.37307 | -70.54830 | 36909 ft | 466 kts | 143° |
| 2026-04-27 00:33 | -6.42557 | -70.51014 | 36917 ft | 466 kts | 143° |
| 2026-04-27 00:33 | -6.47807 | -70.47197 | 36914 ft | 465 kts | 143° |
| 2026-04-27 00:34 | -6.53059 | -70.43377 | 36913 ft | 465 kts | 143° |
| 2026-04-27 00:34 | -6.58274 | -70.39583 | 36914 ft | 465 kts | 143° |
| 2026-04-27 00:35 | -6.63519 | -70.35767 | 36914 ft | 465 kts | 143° |
| 2026-04-27 00:35 | -6.68768 | -70.31947 | 36910 ft | 465 kts | 143° |
| 2026-04-27 00:36 | -6.74013 | -70.28128 | 36913 ft | 465 kts | 143° |
| 2026-04-27 00:36 | -6.79264 | -70.24304 | 36916 ft | 465 kts | 143° |
| 2026-04-27 00:37 | -6.84471 | -70.20511 | 36909 ft | 465 kts | 143° |
| 2026-04-27 00:37 | -6.89712 | -70.16691 | 36909 ft | 465 kts | 143° |
| 2026-04-27 00:38 | -6.94949 | -70.12874 | 36912 ft | 465 kts | 143° |
| 2026-04-27 00:38 | -7.00187 | -70.09055 | 36914 ft | 464 kts | 143° |
| 2026-04-27 00:39 | -7.04536 | -70.05883 | 36911 ft | 464 kts | 143° |
| 2026-04-27 00:39 | -7.09768 | -70.02066 | 36914 ft | 464 kts | 143° |
| 2026-04-27 00:40 | -7.14989 | -69.98257 | 36912 ft | 464 kts | 143° |
| 2026-04-27 00:40 | -7.20208 | -69.94447 | 36911 ft | 463 kts | 143° |
| 2026-04-27 00:41 | -7.25422 | -69.90639 | 36913 ft | 463 kts | 143° |
| 2026-04-27 00:41 | -7.30632 | -69.86835 | 36912 ft | 462 kts | 143° |
| 2026-04-27 00:42 | -7.35838 | -69.83036 | 36912 ft | 461 kts | 143° |
| 2026-04-27 00:42 | -7.41032 | -69.79243 | 36912 ft | 461 kts | 143° |
| 2026-04-27 00:43 | -7.46221 | -69.75451 | 36915 ft | 460 kts | 143° |
| 2026-04-27 00:43 | -7.51404 | -69.71662 | 36913 ft | 460 kts | 143° |
| 2026-04-27 00:44 | -7.56581 | -69.67877 | 36915 ft | 459 kts | 143° |
| 2026-04-27 00:44 | -7.61719 | -69.64119 | 36914 ft | 459 kts | 143° |
| 2026-04-27 00:45 | -7.66892 | -69.60334 | 36911 ft | 459 kts | 143° |
| 2026-04-27 00:45 | -7.72061 | -69.56551 | 36912 ft | 459 kts | 142° |
| 2026-04-27 00:46 | -7.77226 | -69.52769 | 36914 ft | 459 kts | 142° |
| 2026-04-27 00:46 | -7.82396 | -69.48983 | 36913 ft | 459 kts | 142° |
| 2026-04-27 00:47 | -7.87569 | -69.45194 | 36916 ft | 460 kts | 142° |
| 2026-04-27 00:47 | -7.92756 | -69.41393 | 36915 ft | 460 kts | 142° |
| 2026-04-27 00:48 | -7.97946 | -69.37588 | 36913 ft | 461 kts | 142° |
| 2026-04-27 00:48 | -8.03103 | -69.33807 | 36915 ft | 461 kts | 142° |
| 2026-04-27 00:49 | -8.08304 | -69.29992 | 36915 ft | 462 kts | 142° |
| 2026-04-27 00:49 | -8.13507 | -69.26175 | 36919 ft | 463 kts | 142° |
| 2026-04-27 00:50 | -8.21327 | -69.20434 | 36919 ft | 463 kts | 142° |
| 2026-04-27 00:51 | -8.26545 | -69.16603 | 36920 ft | 463 kts | 142° |
| 2026-04-27 00:51 | -8.31723 | -69.12799 | 36922 ft | 463 kts | 142° |
| 2026-04-27 00:52 | -8.36939 | -69.08966 | 36921 ft | 463 kts | 142° |
| 2026-04-27 00:52 | -8.42145 | -69.05139 | 36923 ft | 462 kts | 142° |
| 2026-04-27 00:53 | -8.47346 | -69.01315 | 36921 ft | 461 kts | 142° |
| 2026-04-27 00:53 | -8.52533 | -68.97500 | 36918 ft | 461 kts | 142° |
| 2026-04-27 00:54 | -8.57684 | -68.93709 | 36918 ft | 460 kts | 142° |
| 2026-04-27 00:54 | -8.62859 | -68.89900 | 36919 ft | 459 kts | 142° |
| 2026-04-27 00:55 | -8.68030 | -68.86092 | 36920 ft | 459 kts | 142° |
| 2026-04-27 00:55 | -8.73181 | -68.82298 | 36921 ft | 458 kts | 142° |
| 2026-04-27 00:56 | -8.78335 | -68.78500 | 36919 ft | 458 kts | 142° |
| 2026-04-27 00:56 | -8.83484 | -68.74705 | 36918 ft | 458 kts | 142° |
| 2026-04-27 00:57 | -8.88602 | -68.70931 | 36920 ft | 458 kts | 142° |
| 2026-04-27 00:57 | -8.93745 | -68.67137 | 36918 ft | 458 kts | 142° |
| 2026-04-27 00:58 | -8.98892 | -68.63339 | 36918 ft | 458 kts | 142° |
| 2026-04-27 00:58 | -9.04038 | -68.59540 | 36919 ft | 458 kts | 142° |
| 2026-04-27 00:59 | -9.09182 | -68.55741 | 36915 ft | 458 kts | 142° |
| 2026-04-27 00:59 | -9.14327 | -68.51940 | 36920 ft | 458 kts | 142° |
| 2026-04-27 01:00 | -9.19446 | -68.48157 | 36916 ft | 458 kts | 142° |
| 2026-04-27 01:00 | -9.24592 | -68.44352 | 36917 ft | 458 kts | 142° |
| 2026-04-27 01:01 | -9.29745 | -68.40541 | 36918 ft | 458 kts | 142° |
| 2026-04-27 01:01 | -9.34898 | -68.36728 | 36921 ft | 458 kts | 142° |
| 2026-04-27 01:02 | -9.39939 | -68.32784 | 36924 ft | 457 kts | 138° |
| 2026-04-27 01:02 | -9.44691 | -68.28565 | 36923 ft | 457 kts | 136° |
| 2026-04-27 01:03 | -9.49452 | -68.24282 | 36920 ft | 457 kts | 137° |
| 2026-04-27 01:03 | -9.54237 | -68.20025 | 36921 ft | 458 kts | 137° |
| 2026-04-27 01:04 | -9.59036 | -68.15781 | 36924 ft | 458 kts | 137° |
| 2026-04-27 01:04 | -9.63842 | -68.11534 | 36922 ft | 458 kts | 137° |
| 2026-04-27 01:05 | -9.68652 | -68.07281 | 36919 ft | 459 kts | 137° |
| 2026-04-27 01:05 | -9.73462 | -68.03025 | 36919 ft | 459 kts | 137° |
| 2026-04-27 01:06 | -9.78272 | -67.98766 | 36937 ft | 460 kts | 137° |
| 2026-04-27 01:06 | -9.83060 | -67.94524 | 36941 ft | 460 kts | 137° |
| 2026-04-27 01:07 | -9.87925 | -67.90300 | 36937 ft | 461 kts | 142° |
| 2026-04-27 01:07 | -9.93377 | -67.86841 | 36937 ft | 463 kts | 148° |
| 2026-04-27 01:08 | -9.98944 | -67.83544 | 36936 ft | 463 kts | 148° |
| 2026-04-27 01:08 | -10.04490 | -67.80220 | 36929 ft | 463 kts | 147° |
| 2026-04-27 01:09 | -10.09985 | -67.76881 | 36928 ft | 463 kts | 147° |
| 2026-04-27 01:09 | -10.15509 | -67.73511 | 36925 ft | 463 kts | 147° |
| 2026-04-27 01:10 | -10.21034 | -67.70140 | 36924 ft | 463 kts | 147° |
| 2026-04-27 01:10 | -10.26564 | -67.66766 | 36919 ft | 463 kts | 147° |
| 2026-04-27 01:11 | -10.32051 | -67.63417 | 36923 ft | 463 kts | 147° |
| 2026-04-27 01:11 | -10.37572 | -67.60046 | 36925 ft | 463 kts | 147° |
| 2026-04-27 01:12 | -10.43089 | -67.56675 | 36924 ft | 462 kts | 147° |
| 2026-04-27 01:12 | -10.48612 | -67.53301 | 36925 ft | 462 kts | 147° |
| 2026-04-27 01:13 | -10.54156 | -67.49972 | 36927 ft | 462 kts | 148° |
| 2026-04-27 01:13 | -10.59687 | -67.46709 | 36922 ft | 462 kts | 148° |
| 2026-04-27 01:14 | -10.65244 | -67.43429 | 36924 ft | 462 kts | 148° |
| 2026-04-27 01:14 | -10.70800 | -67.40137 | 36925 ft | 462 kts | 148° |
| 2026-04-27 01:15 | -10.76353 | -67.36841 | 36925 ft | 462 kts | 148° |
| 2026-04-27 01:15 | -10.81903 | -67.33543 | 36928 ft | 461 kts | 148° |
| 2026-04-27 01:16 | -10.87445 | -67.30250 | 36927 ft | 461 kts | 148° |
| 2026-04-27 01:16 | -10.92990 | -67.26953 | 36925 ft | 461 kts | 148° |
| 2026-04-27 01:17 | -10.98532 | -67.23658 | 36925 ft | 461 kts | 148° |
| 2026-04-27 01:17 | -11.04035 | -67.20383 | 36927 ft | 461 kts | 148° |
| 2026-04-27 01:18 | -11.09574 | -67.17086 | 36926 ft | 461 kts | 148° |
| 2026-04-27 01:18 | -11.15115 | -67.13786 | 36926 ft | 461 kts | 148° |
| 2026-04-27 01:19 | -11.20655 | -67.10486 | 36925 ft | 461 kts | 148° |
| 2026-04-27 01:19 | -11.26194 | -67.07184 | 36928 ft | 461 kts | 148° |
| 2026-04-27 01:20 | -11.31737 | -67.03879 | 36928 ft | 462 kts | 148° |
| 2026-04-27 01:20 | -11.37281 | -67.00571 | 36927 ft | 462 kts | 148° |
| 2026-04-27 01:21 | -11.42829 | -66.97259 | 36929 ft | 462 kts | 149° |
| 2026-04-27 01:21 | -11.48379 | -66.93945 | 36926 ft | 462 kts | 149° |
| 2026-04-27 01:22 | -11.53934 | -66.90627 | 36928 ft | 463 kts | 149° |
| 2026-04-27 01:22 | -11.59491 | -66.87305 | 36934 ft | 463 kts | 149° |
| 2026-04-27 01:23 | -11.65013 | -66.84004 | 36932 ft | 463 kts | 149° |
| 2026-04-27 01:23 | -11.70571 | -66.80679 | 36929 ft | 463 kts | 149° |
| 2026-04-27 01:24 | -11.76136 | -66.77347 | 36928 ft | 463 kts | 149° |
| 2026-04-27 01:24 | -11.81708 | -66.74011 | 36927 ft | 464 kts | 149° |
| 2026-04-27 01:25 | -11.87242 | -66.70696 | 36930 ft | 464 kts | 149° |
| 2026-04-27 01:25 | -11.92807 | -66.67360 | 36928 ft | 464 kts | 149° |
| 2026-04-27 01:26 | -11.98371 | -66.64023 | 36929 ft | 463 kts | 149° |
| 2026-04-27 01:26 | -12.03944 | -66.60680 | 36932 ft | 463 kts | 149° |
| 2026-04-27 01:27 | -12.09498 | -66.57346 | 36930 ft | 463 kts | 149° |
| 2026-04-27 01:27 | -12.14112 | -66.54575 | 36928 ft | 463 kts | 149° |
| 2026-04-27 01:28 | -12.20561 | -66.50700 | 36927 ft | 463 kts | 149° |
| 2026-04-27 01:28 | -12.25210 | -66.47906 | 36933 ft | 462 kts | 149° |
| 2026-04-27 01:29 | -12.30718 | -66.44594 | 36929 ft | 462 kts | 149° |
| 2026-04-27 01:29 | -12.36262 | -66.41258 | 36930 ft | 462 kts | 149° |
| 2026-04-27 01:30 | -12.41809 | -66.37919 | 36931 ft | 462 kts | 149° |
| 2026-04-27 01:30 | -12.47361 | -66.34575 | 36935 ft | 462 kts | 149° |
| 2026-04-27 01:31 | -12.52916 | -66.31227 | 36932 ft | 463 kts | 149° |
| 2026-04-27 01:31 | -12.58466 | -66.27881 | 36929 ft | 463 kts | 149° |
| 2026-04-27 01:32 | -12.63996 | -66.24545 | 36931 ft | 464 kts | 149° |
| 2026-04-27 01:32 | -12.69564 | -66.21185 | 36931 ft | 464 kts | 149° |
| 2026-04-27 01:33 | -12.75138 | -66.17820 | 36927 ft | 465 kts | 149° |
| 2026-04-27 01:33 | -12.80715 | -66.14450 | 36929 ft | 465 kts | 149° |
| 2026-04-27 01:34 | -12.86252 | -66.11103 | 36929 ft | 465 kts | 149° |
| 2026-04-27 01:34 | -12.91828 | -66.07731 | 36929 ft | 465 kts | 149° |
| 2026-04-27 01:35 | -12.97410 | -66.04354 | 36927 ft | 465 kts | 149° |
| 2026-04-27 01:35 | -13.03000 | -66.00970 | 36930 ft | 465 kts | 149° |
| 2026-04-27 01:36 | -13.08579 | -65.97591 | 36926 ft | 465 kts | 149° |
| 2026-04-27 01:36 | -13.14120 | -65.94233 | 36930 ft | 465 kts | 149° |
| 2026-04-27 01:37 | -13.19693 | -65.90854 | 36929 ft | 465 kts | 149° |
| 2026-04-27 01:37 | -13.25260 | -65.87476 | 36929 ft | 465 kts | 149° |
| 2026-04-27 01:38 | -13.30824 | -65.84098 | 36928 ft | 464 kts | 149° |
| 2026-04-27 01:38 | -13.36387 | -65.80720 | 36927 ft | 464 kts | 149° |
| 2026-04-27 01:39 | -13.41943 | -65.77344 | 36929 ft | 464 kts | 149° |
| 2026-04-27 01:39 | -13.47498 | -65.73966 | 36929 ft | 464 kts | 150° |
| 2026-04-27 01:40 | -13.53049 | -65.70589 | 36929 ft | 464 kts | 150° |
| 2026-04-27 01:40 | -13.58604 | -65.67208 | 36930 ft | 464 kts | 150° |
| 2026-04-27 01:41 | -13.64157 | -65.63826 | 36931 ft | 464 kts | 150° |
| 2026-04-27 01:41 | -13.69716 | -65.60439 | 36931 ft | 464 kts | 150° |
| 2026-04-27 01:42 | -13.75276 | -65.57049 | 36929 ft | 465 kts | 150° |
| 2026-04-27 01:42 | -13.80837 | -65.53657 | 36930 ft | 465 kts | 150° |
| 2026-04-27 01:43 | -13.86406 | -65.50257 | 36929 ft | 465 kts | 150° |
| 2026-04-27 01:43 | -13.91943 | -65.46876 | 36930 ft | 466 kts | 150° |
| 2026-04-27 01:44 | -13.97518 | -65.43469 | 36930 ft | 466 kts | 150° |
| 2026-04-27 01:44 | -14.03094 | -65.40058 | 36932 ft | 466 kts | 150° |
| 2026-04-27 01:45 | -14.08677 | -65.36646 | 36930 ft | 466 kts | 150° |
| 2026-04-27 01:45 | -14.14286 | -65.33275 | 36928 ft | 467 kts | 150° |
| 2026-04-27 01:46 | -14.19906 | -65.29916 | 36931 ft | 467 kts | 150° |
| 2026-04-27 01:46 | -14.25483 | -65.26576 | 36931 ft | 467 kts | 150° |
| 2026-04-27 01:47 | -14.31094 | -65.23206 | 36932 ft | 466 kts | 150° |
| 2026-04-27 01:47 | -14.36701 | -65.19836 | 36930 ft | 466 kts | 150° |
| 2026-04-27 01:48 | -14.42306 | -65.16464 | 36931 ft | 466 kts | 150° |
| 2026-04-27 01:48 | -14.47915 | -65.13089 | 36929 ft | 466 kts | 150° |
| 2026-04-27 01:49 | -14.53521 | -65.09714 | 36927 ft | 467 kts | 150° |
| 2026-04-27 01:49 | -14.59134 | -65.06332 | 36932 ft | 467 kts | 151° |
| 2026-04-27 01:50 | -14.64712 | -65.02969 | 36934 ft | 467 kts | 151° |
| 2026-04-27 01:50 | -14.70315 | -64.99589 | 36931 ft | 468 kts | 151° |
| 2026-04-27 01:51 | -14.75946 | -64.96190 | 36933 ft | 468 kts | 151° |
| 2026-04-27 01:51 | -14.81566 | -64.92784 | 36933 ft | 468 kts | 150° |
| 2026-04-27 01:52 | -14.87141 | -64.89285 | 36933 ft | 469 kts | 149° |
| 2026-04-27 01:52 | -14.92708 | -64.85754 | 36930 ft | 469 kts | 149° |
| 2026-04-27 01:53 | -14.98277 | -64.82232 | 36934 ft | 470 kts | 149° |
| 2026-04-27 01:53 | -15.03821 | -64.78734 | 36936 ft | 470 kts | 150° |
| 2026-04-27 01:54 | -15.09403 | -64.75212 | 36932 ft | 470 kts | 150° |
| 2026-04-27 01:54 | -15.14983 | -64.71690 | 36935 ft | 470 kts | 149° |
| 2026-04-27 01:55 | -15.20568 | -64.68161 | 36937 ft | 470 kts | 149° |
| 2026-04-27 01:55 | -15.26146 | -64.64634 | 36931 ft | 470 kts | 150° |
| 2026-04-27 01:56 | -15.34512 | -64.59341 | 36930 ft | 469 kts | 150° |
| 2026-04-27 01:56 | -15.40088 | -64.55809 | 36934 ft | 469 kts | 149° |
| 2026-04-27 01:57 | -15.45655 | -64.52281 | 36936 ft | 469 kts | 149° |
| 2026-04-27 01:57 | -15.51217 | -64.48755 | 36935 ft | 469 kts | 149° |
| 2026-04-27 01:58 | -15.54004 | -64.46994 | 36802 ft | 471 kts | 150° |
| 2026-04-27 01:58 | -15.56822 | -64.45221 | 36283 ft | 474 kts | 150° |
| 2026-04-27 01:58 | -15.59635 | -64.43454 | 35760 ft | 471 kts | 150° |
| 2026-04-27 01:58 | -15.62427 | -64.41700 | 35350 ft | 467 kts | 150° |
| 2026-04-27 01:59 | -15.65192 | -64.39961 | 34919 ft | 463 kts | 150° |
| 2026-04-27 01:59 | -15.67939 | -64.38232 | 34484 ft | 460 kts | 150° |
| 2026-04-27 01:59 | -15.70669 | -64.36513 | 34039 ft | 458 kts | 150° |
| 2026-04-27 01:59 | -15.73351 | -64.34823 | 33554 ft | 455 kts | 150° |
| 2026-04-27 02:00 | -15.76051 | -64.33120 | 33101 ft | 452 kts | 150° |
| 2026-04-27 02:00 | -15.78725 | -64.31434 | 32656 ft | 448 kts | 150° |
| 2026-04-27 02:00 | -15.81380 | -64.29759 | 32231 ft | 445 kts | 149° |
| 2026-04-27 02:00 | -15.84016 | -64.28096 | 31810 ft | 441 kts | 149° |
| 2026-04-27 02:01 | -15.86630 | -64.26446 | 31398 ft | 438 kts | 149° |
| 2026-04-27 02:01 | -15.89222 | -64.24809 | 30977 ft | 435 kts | 149° |
| 2026-04-27 02:01 | -15.91801 | -64.23180 | 30568 ft | 432 kts | 149° |
| 2026-04-27 02:01 | -15.94363 | -64.21561 | 30149 ft | 430 kts | 149° |
| 2026-04-27 02:02 | -15.96906 | -64.19954 | 29694 ft | 427 kts | 149° |
| 2026-04-27 02:02 | -15.99434 | -64.18356 | 29232 ft | 423 kts | 149° |
| 2026-04-27 02:02 | -16.01942 | -64.16770 | 28789 ft | 419 kts | 149° |
| 2026-04-27 02:02 | -16.04393 | -64.15220 | 28362 ft | 416 kts | 149° |
| 2026-04-27 02:03 | -16.06854 | -64.13662 | 27940 ft | 412 kts | 149° |
| 2026-04-27 02:03 | -16.09294 | -64.12118 | 27522 ft | 408 kts | 149° |
| 2026-04-27 02:03 | -16.11706 | -64.10591 | 27111 ft | 405 kts | 149° |
| 2026-04-27 02:03 | -16.14103 | -64.09073 | 26706 ft | 401 kts | 149° |
| 2026-04-27 02:04 | -16.16477 | -64.07569 | 26301 ft | 398 kts | 149° |
| 2026-04-27 02:04 | -16.18838 | -64.06073 | 25900 ft | 395 kts | 149° |
| 2026-04-27 02:04 | -16.21183 | -64.04587 | 25499 ft | 393 kts | 149° |
| 2026-04-27 02:04 | -16.23507 | -64.03113 | 25093 ft | 391 kts | 149° |
| 2026-04-27 02:05 | -16.25824 | -64.01643 | 24691 ft | 389 kts | 149° |
| 2026-04-27 02:05 | -16.28135 | -64.00177 | 24282 ft | 387 kts | 149° |
| 2026-04-27 02:05 | -16.30397 | -63.98742 | 23893 ft | 385 kts | 148° |
| 2026-04-27 02:05 | -16.32680 | -63.97293 | 23486 ft | 383 kts | 148° |
| 2026-04-27 02:06 | -16.34948 | -63.95852 | 23032 ft | 381 kts | 148° |
| 2026-04-27 02:06 | -16.37206 | -63.94418 | 22612 ft | 378 kts | 149° |
| 2026-04-27 02:06 | -16.39436 | -63.93001 | 22213 ft | 374 kts | 149° |
| 2026-04-27 02:06 | -16.41651 | -63.91593 | 21823 ft | 371 kts | 149° |
| 2026-04-27 02:07 | -16.43846 | -63.90197 | 21439 ft | 368 kts | 149° |
| 2026-04-27 02:07 | -16.46029 | -63.88810 | 21064 ft | 365 kts | 149° |
| 2026-04-27 02:07 | -16.48190 | -63.87436 | 20691 ft | 363 kts | 149° |
| 2026-04-27 02:07 | -16.50340 | -63.86081 | 20341 ft | 359 kts | 149° |
| 2026-04-27 02:08 | -16.52478 | -63.84749 | 19982 ft | 357 kts | 149° |
| 2026-04-27 02:08 | -16.54577 | -63.83445 | 19625 ft | 355 kts | 149° |
| 2026-04-27 02:08 | -16.56691 | -63.82132 | 19245 ft | 353 kts | 149° |
| 2026-04-27 02:08 | -16.58795 | -63.80824 | 18882 ft | 352 kts | 149° |
| 2026-04-27 02:09 | -16.60893 | -63.79518 | 18511 ft | 351 kts | 149° |
| 2026-04-27 02:09 | -16.62986 | -63.78214 | 18120 ft | 350 kts | 150° |
| 2026-04-27 02:09 | -16.65069 | -63.76916 | 17725 ft | 348 kts | 150° |
| 2026-04-27 02:09 | -16.67139 | -63.75625 | 17342 ft | 346 kts | 149° |
| 2026-04-27 02:10 | -16.69199 | -63.74340 | 16969 ft | 344 kts | 149° |
| 2026-04-27 02:10 | -16.71246 | -63.73062 | 16611 ft | 341 kts | 149° |
| 2026-04-27 02:10 | -16.73274 | -63.71795 | 16252 ft | 339 kts | 149° |
| 2026-04-27 02:10 | -16.75294 | -63.70534 | 15899 ft | 337 kts | 149° |
| 2026-04-27 02:11 | -16.77304 | -63.69278 | 15553 ft | 336 kts | 149° |
| 2026-04-27 02:11 | -16.79303 | -63.68029 | 15208 ft | 334 kts | 149° |
| 2026-04-27 02:11 | -16.81291 | -63.66787 | 14867 ft | 333 kts | 149° |
| 2026-04-27 02:11 | -16.83274 | -63.65547 | 14522 ft | 332 kts | 149° |
| 2026-04-27 02:12 | -16.85249 | -63.64311 | 14174 ft | 331 kts | 149° |
| 2026-04-27 02:12 | -16.87222 | -63.63078 | 13821 ft | 330 kts | 149° |
| 2026-04-27 02:12 | -16.89194 | -63.61844 | 13439 ft | 330 kts | 149° |
| 2026-04-27 02:12 | -16.91156 | -63.60616 | 13073 ft | 328 kts | 149° |
| 2026-04-27 02:13 | -16.93111 | -63.59392 | 12721 ft | 327 kts | 149° |
| 2026-04-27 02:13 | -16.95058 | -63.58173 | 12380 ft | 325 kts | 149° |
| 2026-04-27 02:13 | -16.96996 | -63.56959 | 12041 ft | 324 kts | 149° |
| 2026-04-27 02:13 | -16.98921 | -63.55753 | 11703 ft | 322 kts | 149° |
| 2026-04-27 02:14 | -17.00842 | -63.54550 | 11363 ft | 321 kts | 149° |
| 2026-04-27 02:14 | -17.02753 | -63.53352 | 11029 ft | 320 kts | 149° |
| 2026-04-27 02:14 | -17.04659 | -63.52157 | 10697 ft | 319 kts | 149° |
| 2026-04-27 02:14 | -17.06558 | -63.50966 | 10368 ft | 318 kts | 149° |
| 2026-04-27 02:15 | -17.08439 | -63.49786 | 10193 ft | 311 kts | 149° |
| 2026-04-27 02:15 | -17.10254 | -63.48647 | 10049 ft | 304 kts | 149° |
| 2026-04-27 02:15 | -17.12051 | -63.47520 | 9832 ft | 300 kts | 149° |
| 2026-04-27 02:15 | -17.13841 | -63.46396 | 9521 ft | 299 kts | 149° |
| 2026-04-27 02:16 | -17.15624 | -63.45277 | 9219 ft | 298 kts | 149° |
| 2026-04-27 02:16 | -17.17396 | -63.44165 | 8932 ft | 296 kts | 149° |
| 2026-04-27 02:16 | -17.19160 | -63.43057 | 8643 ft | 295 kts | 149° |
| 2026-04-27 02:16 | -17.20916 | -63.41954 | 8349 ft | 294 kts | 149° |
| 2026-04-27 02:17 | -17.22664 | -63.40855 | 8066 ft | 292 kts | 149° |
| 2026-04-27 02:17 | -17.24405 | -63.39761 | 7776 ft | 291 kts | 149° |
| 2026-04-27 02:17 | -17.25557 | -63.39037 | 7588 ft | 291 kts | 149° |
| 2026-04-27 02:17 | -17.27286 | -63.37950 | 7306 ft | 290 kts | 149° |
| 2026-04-27 02:18 | -17.29567 | -63.36515 | 6926 ft | 288 kts | 149° |
| 2026-04-27 02:18 | -17.31287 | -63.35434 | 6651 ft | 288 kts | 150° |
| 2026-04-27 02:18 | -17.33052 | -63.34452 | 6370 ft | 287 kts | 153° |
| 2026-04-27 02:18 | -17.34243 | -63.33786 | 6166 ft | 286 kts | 151° |
| 2026-04-27 02:19 | -17.35932 | -63.32739 | 5873 ft | 285 kts | 148° |
| 2026-04-27 02:19 | -17.37605 | -63.31628 | 5588 ft | 284 kts | 147° |
| 2026-04-27 02:19 | -17.39262 | -63.30507 | 5304 ft | 283 kts | 147° |
| 2026-04-27 02:19 | -17.40911 | -63.29393 | 5023 ft | 279 kts | 147° |
| 2026-04-27 02:20 | -17.42507 | -63.28317 | 4901 ft | 266 kts | 147° |
| 2026-04-27 02:20 | -17.44028 | -63.27293 | 4827 ft | 253 kts | 147° |
| 2026-04-27 02:20 | -17.45468 | -63.26324 | 4706 ft | 240 kts | 147° |
| 2026-04-27 02:20 | -17.46841 | -63.25401 | 4590 ft | 228 kts | 147° |
| 2026-04-27 02:21 | -17.48132 | -63.24532 | 4514 ft | 214 kts | 147° |
| 2026-04-27 02:21 | -17.49363 | -63.23704 | 4306 ft | 208 kts | 147° |
| 2026-04-27 02:21 | -17.50562 | -63.22897 | 4081 ft | 201 kts | 147° |
| 2026-04-27 02:21 | -17.51713 | -63.22122 | 3905 ft | 194 kts | 147° |
| 2026-04-27 02:22 | -17.52830 | -63.21371 | 3664 ft | 187 kts | 147° |
| 2026-04-27 02:22 | -17.53900 | -63.20651 | 3420 ft | 179 kts | 147° |
| 2026-04-27 02:22 | -17.54935 | -63.19954 | 3225 ft | 172 kts | 148° |
| 2026-04-27 02:22 | -17.55923 | -63.19290 | 2961 ft | 163 kts | 148° |
| 2026-04-27 02:23 | -17.56831 | -63.18679 | 2793 ft | 152 kts | 148° |
| 2026-04-27 02:23 | -17.57704 | -63.18091 | 2559 ft | 144 kts | 148° |
| 2026-04-27 02:23 | -17.58518 | -63.17540 | 2398 ft | 134 kts | 148° |
| 2026-04-27 02:23 | -17.59280 | -63.16988 | 2225 ft | 133 kts | 147° |
| 2026-04-27 02:24 | -17.60061 | -63.16442 | 1975 ft | 136 kts | 149° |
| 2026-04-27 02:24 | -17.60864 | -63.15936 | 1775 ft | 133 kts | 151° |
| 2026-04-27 02:24 | -17.61640 | -63.15427 | 1626 ft | 130 kts | 150° |
| 2026-04-27 02:24 | -17.62412 | -63.14912 | 1437 ft | 132 kts | 150° |
| 2026-04-27 02:25 | -17.63181 | -63.14400 | 1277 ft | 129 kts | 151° |
| 2026-04-27 02:25 | -17.63880 | -63.13936 | 1228 ft | 104 kts | 146° |
| 2026-04-27 02:25 | -17.64357 | -63.13617 | 1230 ft | 63 kts | 147° |
| 2026-04-27 02:25 | -17.64639 | -63.13429 | 1231 ft | 42 kts | 147° |
| 2026-04-27 02:26 | -17.64858 | -63.13281 | 1230 ft | 31 kts | 148° |
| 2026-04-27 02:26 | -17.65008 | -63.13178 | 1230 ft | 19 kts | 147° |
| 2026-04-27 02:26 | -17.65108 | -63.13185 | 1230 ft | 15 kts | 223° |
| 2026-04-27 02:26 | -17.65161 | -63.13273 | 1230 ft | 14 kts | 260° |
| 2026-04-27 02:27 | -17.65111 | -63.13350 | 1230 ft | 13 kts | 328° |
| 2026-04-27 02:27 | -17.65034 | -63.13399 | 1230 ft | 13 kts | 328° |
| 2026-04-27 02:27 | -17.64960 | -63.13449 | 1230 ft | 12 kts | 327° |
| 2026-04-27 02:27 | -17.64888 | -63.13496 | 1230 ft | 12 kts | 329° |
| 2026-04-27 02:28 | -17.64820 | -63.13541 | 1230 ft | 10 kts | 326° |
| 2026-04-27 02:28 | -17.64800 | -63.13600 | 1230 ft | 9 kts | 255° |
| 2026-04-27 02:28 | -17.64831 | -63.13660 | 1230 ft | 9 kts | 236° |
| 2026-04-27 02:28 | -17.64865 | -63.13715 | 1230 ft | 9 kts | 238° |
| 2026-04-27 02:29 | -17.64882 | -63.13775 | 1230 ft | 9 kts | 282° |
| 2026-04-27 02:29 | -17.64841 | -63.13819 | 1230 ft | 8 kts | 327° |
| 2026-04-27 02:29 | -17.64792 | -63.13852 | 1230 ft | 8 kts | 328° |
| 2026-04-27 02:29 | -17.64770 | -63.13876 | 1230 ft | 3 kts | 279° |
| 2026-04-27 02:30 | -17.64778 | -63.13894 | 1230 ft | 3 kts | 232° |
| 2026-04-27 02:30 | -17.64789 | -63.13910 | 1230 ft | 3 kts | 236° |
| 2026-04-27 02:30 | -17.64799 | -63.13926 | 1230 ft | 3 kts | 238° |
| 2026-04-27 02:30 | -17.64806 | -63.13938 | 1230 ft | 1 kts | 238° |
| 2026-04-27 02:31 | -17.64809 | -63.13943 | 1230 ft | 1 kts | 238° |